| |
Missouri Department of Transportation

Social Media Facebook Twitter Flickr Instagram YouTube RSS

Current AWOS Information

 
AWOS Home - General Info for all Airports
Current AWOS for all Airports - Current METAR for all Airports
Glossary - Disclaimer - Other Links


MALDEN--MALDEN REGIONAL--KMAW
 
Recent AWOS History
 
05/29/15     01:12 PM CDT      18:12 GMT
Air Temperature 85°F (29°C ) 1st Cloud Layer Scattered at 3,200 feet
Dew Point 69°F (21°C) 2nd Cloud Layer  
Barometric Pressure 30.06 in Hg. 3rd Cloud Layer  
Wind Speed 9 mph (8 knots) Density Altitude 1900 feet
Peak Wind Gusts   Variable Wind Directions  
Wind Direction Quadrant(150°) Variable Visibility  
Visibility 10 statute miles  

Thunderstorm and Precipitation Identification: 
Thunderstorm Remarks: 

Current METAR Record: METAR KMAW 291809Z AUTO 16008KT 10SM SCT032 29/21 A3006 RMK AO2

 

 

 

About Us
How Do I...
Contact Us
Missouri Department of Transportation
Central Office
105 W. Capitol Avenue
Jefferson City, MO 65102
1-888-ASK-MODOT (275-6636)
1-866-831-6277 (Motor Carrier Services)
Driver's License Offices
horz_bar
| | |
Missouri State Government
© 2013 Missouri Department of Transportation. All Rights Reserved.   Privacy Policy.
 
 
 
 
RSS FeedYoutubeBlogFlickrTwitter Facebook